sensor_id;sensor_type;location;lat;lon;timestamp;P1;durP1;ratioP1;P2;durP2;ratioP2
10945;SDS011;5525;42.648;23.368;2023-03-01T00:00:04;4.60;;;3.50;;
10945;SDS011;5525;42.648;23.368;2023-03-01T00:02:33;4.65;;;4.00;;
10945;SDS011;5525;42.648;23.368;2023-03-01T00:04:59;4.75;;;3.58;;
10945;SDS011;5525;42.648;23.368;2023-03-01T00:07:26;4.18;;;3.47;;
10945;SDS011;5525;42.648;23.368;2023-03-01T00:09:53;3.78;;;3.30;;
10945;SDS011;5525;42.648;23.368;2023-03-01T00:12:19;4.30;;;3.40;;
10945;SDS011;5525;42.648;23.368;2023-03-01T00:14:48;4.15;;;3.63;;
10945;SDS011;5525;42.648;23.368;2023-03-01T00:17:14;3.97;;;3.55;;
10945;SDS011;5525;42.648;23.368;2023-03-01T00:19:42;4.40;;;3.88;;
10945;SDS011;5525;42.648;23.368;2023-03-01T00:22:08;4.55;;;3.60;;
10945;SDS011;5525;42.648;23.368;2023-03-01T00:24:35;3.90;;;3.42;;
10945;SDS011;5525;42.648;23.368;2023-03-01T00:27:02;4.80;;;3.40;;
10945;SDS011;5525;42.648;23.368;2023-03-01T00:29:29;3.83;;;3.20;;
10945;SDS011;5525;42.648;23.368;2023-03-01T00:31:57;4.57;;;3.50;;
10945;SDS011;5525;42.648;23.368;2023-03-01T00:34:24;4.57;;;3.50;;
10945;SDS011;5525;42.648;23.368;2023-03-01T00:36:50;4.50;;;3.60;;
10945;SDS011;5525;42.648;23.368;2023-03-01T00:39:17;4.35;;;3.67;;
10945;SDS011;5525;42.648;23.368;2023-03-01T00:41:44;4.05;;;3.20;;
10945;SDS011;5525;42.648;23.368;2023-03-01T00:44:10;3.42;;;3.13;;
10945;SDS011;5525;42.648;23.368;2023-03-01T00:46:37;3.67;;;2.83;;
10945;SDS011;5525;42.648;23.368;2023-03-01T00:49:05;3.63;;;3.20;;
10945;SDS011;5525;42.648;23.368;2023-03-01T00:51:32;3.37;;;3.00;;
10945;SDS011;5525;42.648;23.368;2023-03-01T00:54:00;3.95;;;3.40;;
10945;SDS011;5525;42.648;23.368;2023-03-01T00:56:28;4.22;;;3.00;;
10945;SDS011;5525;42.648;23.368;2023-03-01T00:58:55;3.20;;;2.90;;
10945;SDS011;5525;42.648;23.368;2023-03-01T01:01:23;5.07;;;3.22;;
10945;SDS011;5525;42.648;23.368;2023-03-01T01:03:53;3.25;;;2.70;;
10945;SDS011;5525;42.648;23.368;2023-03-01T01:06:24;3.17;;;2.88;;
10945;SDS011;5525;42.648;23.368;2023-03-01T01:08:52;3.40;;;2.85;;
10945;SDS011;5525;42.648;23.368;2023-03-01T01:11:20;3.40;;;3.00;;
10945;SDS011;5525;42.648;23.368;2023-03-01T01:13:48;2.88;;;2.28;;
10945;SDS011;5525;42.648;23.368;2023-03-01T01:16:15;2.70;;;2.35;;
10945;SDS011;5525;42.648;23.368;2023-03-01T01:18:43;2.97;;;2.38;;
10945;SDS011;5525;42.648;23.368;2023-03-01T01:21:11;3.45;;;2.47;;
10945;SDS011;5525;42.648;23.368;2023-03-01T01:23:41;2.30;;;2.10;;
10945;SDS011;5525;42.648;23.368;2023-03-01T01:26:10;5.03;;;2.55;;
10945;SDS011;5525;42.648;23.368;2023-03-01T01:28:38;3.17;;;2.30;;
10945;SDS011;5525;42.648;23.368;2023-03-01T01:31:05;4.60;;;2.28;;
10945;SDS011;5525;42.648;23.368;2023-03-01T01:33:33;3.55;;;2.20;;
10945;SDS011;5525;42.648;23.368;2023-03-01T01:36:00;2.10;;;1.90;;
10945;SDS011;5525;42.648;23.368;2023-03-01T01:38:27;4.15;;;2.17;;
10945;SDS011;5525;42.648;23.368;2023-03-01T01:40:55;2.20;;;1.90;;
10945;SDS011;5525;42.648;23.368;2023-03-01T01:43:22;2.67;;;2.00;;
10945;SDS011;5525;42.648;23.368;2023-03-01T01:45:51;2.20;;;1.85;;
10945;SDS011;5525;42.648;23.368;2023-03-01T01:48:22;3.53;;;2.03;;
10945;SDS011;5525;42.648;23.368;2023-03-01T01:51:05;2.22;;;2.03;;
10945;SDS011;5525;42.648;23.368;2023-03-01T01:53:35;1.95;;;1.75;;
10945;SDS011;5525;42.648;23.368;2023-03-01T01:56:06;2.15;;;1.90;;
10945;SDS011;5525;42.648;23.368;2023-03-01T01:58:35;2.20;;;2.00;;
10945;SDS011;5525;42.648;23.368;2023-03-01T02:01:03;2.08;;;1.88;;
10945;SDS011;5525;42.648;23.368;2023-03-01T02:03:36;2.55;;;1.95;;
10945;SDS011;5525;42.648;23.368;2023-03-01T02:06:10;2.00;;;1.80;;
10945;SDS011;5525;42.648;23.368;2023-03-01T02:08:41;2.33;;;2.13;;
10945;SDS011;5525;42.648;23.368;2023-03-01T02:11:10;2.05;;;1.92;;
10945;SDS011;5525;42.648;23.368;2023-03-01T02:13:39;2.05;;;1.90;;
10945;SDS011;5525;42.648;23.368;2023-03-01T02:16:08;2.17;;;1.98;;
10945;SDS011;5525;42.648;23.368;2023-03-01T02:18:35;1.98;;;1.77;;
10945;SDS011;5525;42.648;23.368;2023-03-01T02:21:08;1.80;;;1.67;;
10945;SDS011;5525;42.648;23.368;2023-03-01T02:23:43;1.83;;;1.70;;
10945;SDS011;5525;42.648;23.368;2023-03-01T02:26:13;2.22;;;2.05;;
10945;SDS011;5525;42.648;23.368;2023-03-01T02:28:45;2.22;;;2.03;;
10945;SDS011;5525;42.648;23.368;2023-03-01T02:31:14;1.98;;;1.83;;
10945;SDS011;5525;42.648;23.368;2023-03-01T02:34:01;2.35;;;2.15;;
10945;SDS011;5525;42.648;23.368;2023-03-01T02:36:30;2.40;;;2.20;;
10945;SDS011;5525;42.648;23.368;2023-03-01T02:39:02;2.67;;;2.47;;
10945;SDS011;5525;42.648;23.368;2023-03-01T02:41:31;2.40;;;2.20;;
10945;SDS011;5525;42.648;23.368;2023-03-01T02:44:03;2.53;;;2.20;;
10945;SDS011;5525;42.648;23.368;2023-03-01T02:46:30;2.50;;;2.30;;
10945;SDS011;5525;42.648;23.368;2023-03-01T02:48:57;2.80;;;2.60;;
10945;SDS011;5525;42.648;23.368;2023-03-01T02:51:27;3.55;;;2.70;;
10945;SDS011;5525;42.648;23.368;2023-03-01T02:54:07;2.50;;;2.28;;
10945;SDS011;5525;42.648;23.368;2023-03-01T02:56:41;3.30;;;2.65;;
10945;SDS011;5525;42.648;23.368;2023-03-01T02:59:14;3.35;;;2.65;;
10945;SDS011;5525;42.648;23.368;2023-03-01T03:01:42;3.10;;;2.80;;
10945;SDS011;5525;42.648;23.368;2023-03-01T03:04:10;6.20;;;3.13;;
10945;SDS011;5525;42.648;23.368;2023-03-01T03:06:41;4.10;;;3.22;;
10945;SDS011;5525;42.648;23.368;2023-03-01T03:09:09;3.97;;;3.58;;
10945;SDS011;5525;42.648;23.368;2023-03-01T03:11:36;4.22;;;3.63;;
10945;SDS011;5525;42.648;23.368;2023-03-01T03:14:11;4.35;;;3.85;;
10945;SDS011;5525;42.648;23.368;2023-03-01T03:16:41;4.32;;;3.92;;
10945;SDS011;5525;42.648;23.368;2023-03-01T03:19:10;4.82;;;3.83;;
10945;SDS011;5525;42.648;23.368;2023-03-01T03:21:37;4.75;;;4.07;;
10945;SDS011;5525;42.648;23.368;2023-03-01T03:24:04;4.97;;;4.10;;
10945;SDS011;5525;42.648;23.368;2023-03-01T03:26:31;4.30;;;3.90;;
10945;SDS011;5525;42.648;23.368;2023-03-01T03:28:58;4.97;;;3.65;;
10945;SDS011;5525;42.648;23.368;2023-03-01T03:31:31;4.78;;;3.78;;
10945;SDS011;5525;42.648;23.368;2023-03-01T03:33:59;5.00;;;3.75;;
10945;SDS011;5525;42.648;23.368;2023-03-01T03:36:26;4.32;;;3.45;;
10945;SDS011;5525;42.648;23.368;2023-03-01T03:38:53;3.50;;;3.00;;
10945;SDS011;5525;42.648;23.368;2023-03-01T03:41:19;3.30;;;2.85;;
10945;SDS011;5525;42.648;23.368;2023-03-01T03:43:46;3.55;;;3.00;;
10945;SDS011;5525;42.648;23.368;2023-03-01T03:46:30;3.08;;;2.78;;
10945;SDS011;5525;42.648;23.368;2023-03-01T03:48:57;3.83;;;2.80;;
10945;SDS011;5525;42.648;23.368;2023-03-01T03:51:25;3.38;;;2.72;;
10945;SDS011;5525;42.648;23.368;2023-03-01T03:53:53;3.53;;;2.58;;
10945;SDS011;5525;42.648;23.368;2023-03-01T03:56:23;4.05;;;2.38;;
10945;SDS011;5525;42.648;23.368;2023-03-01T03:58:51;3.45;;;2.83;;
10945;SDS011;5525;42.648;23.368;2023-03-01T04:01:39;2.78;;;2.47;;
10945;SDS011;5525;42.648;23.368;2023-03-01T04:04:05;2.80;;;2.50;;
10945;SDS011;5525;42.648;23.368;2023-03-01T04:06:34;3.70;;;2.60;;
10945;SDS011;5525;42.648;23.368;2023-03-01T04:09:00;2.70;;;2.08;;
10945;SDS011;5525;42.648;23.368;2023-03-01T04:11:28;2.75;;;2.42;;
10945;SDS011;5525;42.648;23.368;2023-03-01T04:13:55;3.05;;;2.42;;
10945;SDS011;5525;42.648;23.368;2023-03-01T04:16:23;2.75;;;2.28;;
10945;SDS011;5525;42.648;23.368;2023-03-01T04:18:50;2.88;;;2.30;;
10945;SDS011;5525;42.648;23.368;2023-03-01T04:21:17;2.65;;;2.30;;
10945;SDS011;5525;42.648;23.368;2023-03-01T04:23:46;2.85;;;2.55;;
10945;SDS011;5525;42.648;23.368;2023-03-01T04:26:17;2.92;;;2.63;;
10945;SDS011;5525;42.648;23.368;2023-03-01T04:28:47;3.42;;;2.85;;
10945;SDS011;5525;42.648;23.368;2023-03-01T04:31:16;3.08;;;2.60;;
10945;SDS011;5525;42.648;23.368;2023-03-01T04:33:47;3.25;;;2.60;;
10945;SDS011;5525;42.648;23.368;2023-03-01T04:36:16;3.58;;;2.90;;
10945;SDS011;5525;42.648;23.368;2023-03-01T04:38:44;2.97;;;2.45;;
10945;SDS011;5525;42.648;23.368;2023-03-01T04:41:14;2.97;;;2.63;;
10945;SDS011;5525;42.648;23.368;2023-03-01T04:43:45;3.08;;;2.53;;
10945;SDS011;5525;42.648;23.368;2023-03-01T04:46:14;4.22;;;2.78;;
10945;SDS011;5525;42.648;23.368;2023-03-01T04:48:42;3.92;;;2.70;;
10945;SDS011;5525;42.648;23.368;2023-03-01T04:51:10;3.72;;;3.10;;
10945;SDS011;5525;42.648;23.368;2023-03-01T04:53:38;4.68;;;2.70;;
10945;SDS011;5525;42.648;23.368;2023-03-01T04:56:09;3.75;;;3.15;;
10945;SDS011;5525;42.648;23.368;2023-03-01T04:58:37;3.15;;;2.72;;
10945;SDS011;5525;42.648;23.368;2023-03-01T05:01:08;3.50;;;2.83;;
10945;SDS011;5525;42.648;23.368;2023-03-01T05:03:40;3.10;;;2.80;;
10945;SDS011;5525;42.648;23.368;2023-03-01T05:06:09;6.50;;;3.13;;
10945;SDS011;5525;42.648;23.368;2023-03-01T05:08:37;3.65;;;2.60;;
10945;SDS011;5525;42.648;23.368;2023-03-01T05:11:04;6.03;;;2.60;;
10945;SDS011;5525;42.648;23.368;2023-03-01T05:13:34;3.53;;;2.53;;
10945;SDS011;5525;42.648;23.368;2023-03-01T05:16:02;3.25;;;2.95;;
10945;SDS011;5525;42.648;23.368;2023-03-01T05:18:31;3.00;;;2.70;;
10945;SDS011;5525;42.648;23.368;2023-03-01T05:21:01;3.70;;;2.72;;
10945;SDS011;5525;42.648;23.368;2023-03-01T05:23:29;2.60;;;2.40;;
10945;SDS011;5525;42.648;23.368;2023-03-01T05:25:57;2.75;;;2.45;;
10945;SDS011;5525;42.648;23.368;2023-03-01T05:28:24;3.20;;;2.42;;
10945;SDS011;5525;42.648;23.368;2023-03-01T05:30:53;3.25;;;2.78;;
10945;SDS011;5525;42.648;23.368;2023-03-01T05:33:21;3.75;;;2.80;;
10945;SDS011;5525;42.648;23.368;2023-03-01T05:35:48;2.97;;;2.70;;
10945;SDS011;5525;42.648;23.368;2023-03-01T05:38:15;3.42;;;2.50;;
10945;SDS011;5525;42.648;23.368;2023-03-01T05:40:43;4.38;;;2.97;;
10945;SDS011;5525;42.648;23.368;2023-03-01T05:43:11;3.03;;;2.63;;
10945;SDS011;5525;42.648;23.368;2023-03-01T05:45:39;2.95;;;2.50;;
10945;SDS011;5525;42.648;23.368;2023-03-01T05:48:07;3.17;;;2.88;;
10945;SDS011;5525;42.648;23.368;2023-03-01T05:50:36;4.43;;;3.13;;
10945;SDS011;5525;42.648;23.368;2023-03-01T05:53:05;3.20;;;2.72;;
10945;SDS011;5525;42.648;23.368;2023-03-01T05:55:35;2.70;;;2.40;;
10945;SDS011;5525;42.648;23.368;2023-03-01T05:58:03;3.38;;;2.47;;
10945;SDS011;5525;42.648;23.368;2023-03-01T06:00:31;3.30;;;2.30;;
10945;SDS011;5525;42.648;23.368;2023-03-01T06:02:59;2.63;;;2.15;;
10945;SDS011;5525;42.648;23.368;2023-03-01T06:05:26;4.35;;;2.47;;
10945;SDS011;5525;42.648;23.368;2023-03-01T06:07:57;2.88;;;2.50;;
10945;SDS011;5525;42.648;23.368;2023-03-01T06:10:25;2.58;;;2.30;;
10945;SDS011;5525;42.648;23.368;2023-03-01T06:12:51;6.03;;;3.42;;
10945;SDS011;5525;42.648;23.368;2023-03-01T06:15:19;2.80;;;2.40;;
10945;SDS011;5525;42.648;23.368;2023-03-01T06:17:46;2.90;;;2.30;;
10945;SDS011;5525;42.648;23.368;2023-03-01T06:20:14;4.07;;;2.53;;
10945;SDS011;5525;42.648;23.368;2023-03-01T06:22:42;2.92;;;2.63;;
10945;SDS011;5525;42.648;23.368;2023-03-01T06:25:10;4.05;;;2.45;;
10945;SDS011;5525;42.648;23.368;2023-03-01T06:27:39;3.55;;;2.53;;
10945;SDS011;5525;42.648;23.368;2023-03-01T06:30:07;5.88;;;2.70;;
10945;SDS011;5525;42.648;23.368;2023-03-01T06:32:35;3.50;;;2.70;;
10945;SDS011;5525;42.648;23.368;2023-03-01T06:35:01;2.50;;;2.30;;
10945;SDS011;5525;42.648;23.368;2023-03-01T06:37:28;3.40;;;2.90;;
10945;SDS011;5525;42.648;23.368;2023-03-01T06:39:55;3.40;;;2.60;;
10945;SDS011;5525;42.648;23.368;2023-03-01T06:42:23;3.30;;;2.75;;
10945;SDS011;5525;42.648;23.368;2023-03-01T06:44:50;2.92;;;2.55;;
10945;SDS011;5525;42.648;23.368;2023-03-01T06:47:16;3.55;;;2.92;;
10945;SDS011;5525;42.648;23.368;2023-03-01T06:49:43;3.30;;;2.83;;
10945;SDS011;5525;42.648;23.368;2023-03-01T06:52:10;3.75;;;2.97;;
10945;SDS011;5525;42.648;23.368;2023-03-01T06:54:36;3.00;;;2.70;;
10945;SDS011;5525;42.648;23.368;2023-03-01T06:57:03;5.15;;;2.72;;
10945;SDS011;5525;42.648;23.368;2023-03-01T06:59:31;4.15;;;2.78;;
10945;SDS011;5525;42.648;23.368;2023-03-01T07:01:58;2.35;;;2.10;;
10945;SDS011;5525;42.648;23.368;2023-03-01T07:04:25;5.15;;;2.70;;
10945;SDS011;5525;42.648;23.368;2023-03-01T07:06:53;2.63;;;2.33;;
10945;SDS011;5525;42.648;23.368;2023-03-01T07:09:20;3.88;;;2.08;;
10945;SDS011;5525;42.648;23.368;2023-03-01T07:11:47;3.97;;;2.33;;
10945;SDS011;5525;42.648;23.368;2023-03-01T07:14:21;2.75;;;2.20;;
10945;SDS011;5525;42.648;23.368;2023-03-01T07:16:50;2.95;;;2.65;;
10945;SDS011;5525;42.648;23.368;2023-03-01T07:19:17;3.00;;;2.60;;
10945;SDS011;5525;42.648;23.368;2023-03-01T07:21:44;2.38;;;2.17;;
10945;SDS011;5525;42.648;23.368;2023-03-01T07:24:11;2.38;;;2.17;;
10945;SDS011;5525;42.648;23.368;2023-03-01T07:26:38;2.53;;;2.30;;
10945;SDS011;5525;42.648;23.368;2023-03-01T07:29:05;2.55;;;2.30;;
10945;SDS011;5525;42.648;23.368;2023-03-01T07:31:33;4.57;;;2.67;;
10945;SDS011;5525;42.648;23.368;2023-03-01T07:34:02;3.03;;;2.45;;
10945;SDS011;5525;42.648;23.368;2023-03-01T07:36:29;2.50;;;2.25;;
10945;SDS011;5525;42.648;23.368;2023-03-01T07:39:02;2.10;;;1.85;;
10945;SDS011;5525;42.648;23.368;2023-03-01T07:41:29;2.72;;;1.60;;
10945;SDS011;5525;42.648;23.368;2023-03-01T07:43:56;2.65;;;1.90;;
10945;SDS011;5525;42.648;23.368;2023-03-01T07:46:23;2.10;;;1.90;;
10945;SDS011;5525;42.648;23.368;2023-03-01T07:48:49;3.95;;;2.10;;
10945;SDS011;5525;42.648;23.368;2023-03-01T07:51:17;2.72;;;2.20;;
10945;SDS011;5525;42.648;23.368;2023-03-01T07:53:45;2.60;;;2.25;;
10945;SDS011;5525;42.648;23.368;2023-03-01T07:56:13;3.00;;;2.28;;
10945;SDS011;5525;42.648;23.368;2023-03-01T07:58:42;3.67;;;1.85;;
10945;SDS011;5525;42.648;23.368;2023-03-01T08:01:11;2.10;;;1.90;;
10945;SDS011;5525;42.648;23.368;2023-03-01T08:03:39;4.22;;;2.22;;
10945;SDS011;5525;42.648;23.368;2023-03-01T08:06:07;4.35;;;2.40;;
10945;SDS011;5525;42.648;23.368;2023-03-01T08:08:37;3.08;;;2.28;;
10945;SDS011;5525;42.648;23.368;2023-03-01T08:11:04;2.92;;;2.42;;
10945;SDS011;5525;42.648;23.368;2023-03-01T08:13:32;3.17;;;2.30;;
10945;SDS011;5525;42.648;23.368;2023-03-01T08:16:00;2.78;;;2.47;;
10945;SDS011;5525;42.648;23.368;2023-03-01T08:18:28;3.80;;;2.70;;
10945;SDS011;5525;42.648;23.368;2023-03-01T08:20:55;3.30;;;2.30;;
10945;SDS011;5525;42.648;23.368;2023-03-01T08:23:21;3.40;;;2.50;;
10945;SDS011;5525;42.648;23.368;2023-03-01T08:25:49;3.10;;;1.85;;
10945;SDS011;5525;42.648;23.368;2023-03-01T08:28:18;3.08;;;2.40;;
10945;SDS011;5525;42.648;23.368;2023-03-01T08:30:44;4.07;;;2.72;;
10945;SDS011;5525;42.648;23.368;2023-03-01T08:33:11;3.22;;;2.80;;
10945;SDS011;5525;42.648;23.368;2023-03-01T08:35:38;3.35;;;2.65;;
10945;SDS011;5525;42.648;23.368;2023-03-01T08:38:04;2.95;;;2.65;;
10945;SDS011;5525;42.648;23.368;2023-03-01T08:40:31;2.85;;;2.55;;
10945;SDS011;5525;42.648;23.368;2023-03-01T08:42:59;2.97;;;2.72;;
10945;SDS011;5525;42.648;23.368;2023-03-01T08:45:26;3.22;;;2.40;;
10945;SDS011;5525;42.648;23.368;2023-03-01T08:47:53;2.88;;;2.58;;
10945;SDS011;5525;42.648;23.368;2023-03-01T08:50:19;3.20;;;2.90;;
10945;SDS011;5525;42.648;23.368;2023-03-01T08:52:47;2.83;;;2.28;;
10945;SDS011;5525;42.648;23.368;2023-03-01T08:55:14;5.35;;;4.47;;
10945;SDS011;5525;42.648;23.368;2023-03-01T08:57:42;4.05;;;3.47;;
10945;SDS011;5525;42.648;23.368;2023-03-01T09:00:11;3.92;;;3.38;;
10945;SDS011;5525;42.648;23.368;2023-03-01T09:02:39;3.42;;;3.13;;
10945;SDS011;5525;42.648;23.368;2023-03-01T09:05:07;6.75;;;3.40;;
10945;SDS011;5525;42.648;23.368;2023-03-01T09:07:34;2.88;;;2.40;;
10945;SDS011;5525;42.648;23.368;2023-03-01T09:10:01;3.25;;;2.95;;
10945;SDS011;5525;42.648;23.368;2023-03-01T09:12:27;3.30;;;2.78;;
10945;SDS011;5525;42.648;23.368;2023-03-01T09:14:54;5.03;;;3.15;;
10945;SDS011;5525;42.648;23.368;2023-03-01T09:17:22;3.92;;;2.35;;
10945;SDS011;5525;42.648;23.368;2023-03-01T09:19:49;3.97;;;2.38;;
10945;SDS011;5525;42.648;23.368;2023-03-01T09:22:16;3.35;;;2.28;;
10945;SDS011;5525;42.648;23.368;2023-03-01T09:24:42;2.67;;;2.08;;
10945;SDS011;5525;42.648;23.368;2023-03-01T09:27:10;2.50;;;2.00;;
10945;SDS011;5525;42.648;23.368;2023-03-01T09:29:37;3.10;;;2.13;;
10945;SDS011;5525;42.648;23.368;2023-03-01T09:32:04;2.63;;;2.10;;
10945;SDS011;5525;42.648;23.368;2023-03-01T09:34:34;2.35;;;1.83;;
10945;SDS011;5525;42.648;23.368;2023-03-01T09:37:22;2.67;;;2.05;;
10945;SDS011;5525;42.648;23.368;2023-03-01T09:39:48;2.13;;;1.70;;
10945;SDS011;5525;42.648;23.368;2023-03-01T09:42:15;2.78;;;2.08;;
10945;SDS011;5525;42.648;23.368;2023-03-01T09:44:43;2.22;;;1.60;;
10945;SDS011;5525;42.648;23.368;2023-03-01T09:47:17;2.15;;;1.63;;
10945;SDS011;5525;42.648;23.368;2023-03-01T09:49:48;1.73;;;1.50;;
10945;SDS011;5525;42.648;23.368;2023-03-01T09:52:23;2.95;;;2.00;;
10945;SDS011;5525;42.648;23.368;2023-03-01T09:54:55;2.05;;;1.70;;
10945;SDS011;5525;42.648;23.368;2023-03-01T09:57:26;2.38;;;1.40;;
10945;SDS011;5525;42.648;23.368;2023-03-01T09:59:59;4.78;;;2.58;;
10945;SDS011;5525;42.648;23.368;2023-03-01T10:02:39;3.05;;;1.90;;
10945;SDS011;5525;42.648;23.368;2023-03-01T10:05:26;1.95;;;1.75;;
10945;SDS011;5525;42.648;23.368;2023-03-01T10:08:02;2.33;;;1.70;;
10945;SDS011;5525;42.648;23.368;2023-03-01T10:10:46;2.50;;;2.03;;
10945;SDS011;5525;42.648;23.368;2023-03-01T10:13:15;2.35;;;1.85;;
10945;SDS011;5525;42.648;23.368;2023-03-01T10:15:47;3.03;;;2.00;;
10945;SDS011;5525;42.648;23.368;2023-03-01T10:18:20;2.60;;;1.98;;
10945;SDS011;5525;42.648;23.368;2023-03-01T10:20:52;3.58;;;2.15;;
10945;SDS011;5525;42.648;23.368;2023-03-01T10:23:20;2.85;;;1.70;;
10945;SDS011;5525;42.648;23.368;2023-03-01T10:25:52;2.78;;;2.00;;
10945;SDS011;5525;42.648;23.368;2023-03-01T10:28:31;4.53;;;2.13;;
10945;SDS011;5525;42.648;23.368;2023-03-01T10:31:08;3.13;;;2.10;;
10945;SDS011;5525;42.648;23.368;2023-03-01T10:33:39;1.65;;;1.55;;
10945;SDS011;5525;42.648;23.368;2023-03-01T10:36:08;2.45;;;1.90;;
10945;SDS011;5525;42.648;23.368;2023-03-01T10:38:47;2.53;;;1.70;;
10945;SDS011;5525;42.648;23.368;2023-03-01T10:41:17;2.85;;;1.73;;
10945;SDS011;5525;42.648;23.368;2023-03-01T10:43:45;4.88;;;2.00;;
10945;SDS011;5525;42.648;23.368;2023-03-01T10:49:06;2.63;;;1.80;;
10945;SDS011;5525;42.648;23.368;2023-03-01T10:51:39;2.13;;;1.92;;
10945;SDS011;5525;42.648;23.368;2023-03-01T10:54:14;2.70;;;2.33;;
10945;SDS011;5525;42.648;23.368;2023-03-01T10:56:47;2.22;;;1.95;;
10945;SDS011;5525;42.648;23.368;2023-03-01T10:59:21;2.83;;;2.30;;
10945;SDS011;5525;42.648;23.368;2023-03-01T11:02:03;2.80;;;2.50;;
10945;SDS011;5525;42.648;23.368;2023-03-01T11:04:44;3.45;;;2.20;;
10945;SDS011;5525;42.648;23.368;2023-03-01T11:07:24;4.95;;;3.42;;
10945;SDS011;5525;42.648;23.368;2023-03-01T11:09:51;2.60;;;2.40;;
10945;SDS011;5525;42.648;23.368;2023-03-01T11:12:18;3.75;;;2.25;;
10945;SDS011;5525;42.648;23.368;2023-03-01T11:14:46;2.60;;;2.40;;
10945;SDS011;5525;42.648;23.368;2023-03-01T11:17:15;3.50;;;2.40;;
10945;SDS011;5525;42.648;23.368;2023-03-01T11:19:59;3.78;;;2.55;;
10945;SDS011;5525;42.648;23.368;2023-03-01T11:22:27;2.50;;;2.30;;
10945;SDS011;5525;42.648;23.368;2023-03-01T11:24:57;3.50;;;2.40;;
10945;SDS011;5525;42.648;23.368;2023-03-01T11:27:25;2.72;;;2.28;;
10945;SDS011;5525;42.648;23.368;2023-03-01T11:29:55;4.03;;;2.83;;
10945;SDS011;5525;42.648;23.368;2023-03-01T11:32:26;2.50;;;2.30;;
10945;SDS011;5525;42.648;23.368;2023-03-01T11:34:57;2.60;;;2.40;;
10945;SDS011;5525;42.648;23.368;2023-03-01T11:37:33;3.60;;;2.63;;
10945;SDS011;5525;42.648;23.368;2023-03-01T11:40:07;3.33;;;2.75;;
10945;SDS011;5525;42.648;23.368;2023-03-01T11:42:42;2.83;;;2.63;;
10945;SDS011;5525;42.648;23.368;2023-03-01T11:45:20;2.90;;;2.70;;
10945;SDS011;5525;42.648;23.368;2023-03-01T11:47:54;3.15;;;2.90;;
10945;SDS011;5525;42.648;23.368;2023-03-01T11:50:36;3.40;;;3.10;;
10945;SDS011;5525;42.648;23.368;2023-03-01T11:53:20;3.70;;;3.30;;
10945;SDS011;5525;42.648;23.368;2023-03-01T11:56:09;3.90;;;3.58;;
10945;SDS011;5525;42.648;23.368;2023-03-01T11:58:53;3.88;;;3.47;;
10945;SDS011;5525;42.648;23.368;2023-03-01T12:01:32;3.15;;;2.85;;
10945;SDS011;5525;42.648;23.368;2023-03-01T12:04:22;6.05;;;3.42;;
10945;SDS011;5525;42.648;23.368;2023-03-01T12:07:03;4.00;;;3.45;;
10945;SDS011;5525;42.648;23.368;2023-03-01T12:09:44;3.35;;;3.08;;
10945;SDS011;5525;42.648;23.368;2023-03-01T12:15:23;3.40;;;2.92;;
10945;SDS011;5525;42.648;23.368;2023-03-01T12:18:21;4.38;;;3.28;;
10945;SDS011;5525;42.648;23.368;2023-03-01T12:20:59;2.97;;;2.78;;
10945;SDS011;5525;42.648;23.368;2023-03-01T12:23:43;3.55;;;3.20;;
10945;SDS011;5525;42.648;23.368;2023-03-01T12:26:25;3.40;;;3.10;;
10945;SDS011;5525;42.648;23.368;2023-03-01T12:28:57;4.00;;;3.60;;
10945;SDS011;5525;42.648;23.368;2023-03-01T12:31:38;5.80;;;3.40;;
10945;SDS011;5525;42.648;23.368;2023-03-01T12:34:25;3.92;;;2.95;;
10945;SDS011;5525;42.648;23.368;2023-03-01T12:37:13;4.28;;;3.85;;
10945;SDS011;5525;42.648;23.368;2023-03-01T12:39:53;5.53;;;2.90;;
10945;SDS011;5525;42.648;23.368;2023-03-01T12:42:33;3.63;;;3.28;;
10945;SDS011;5525;42.648;23.368;2023-03-01T12:45:26;3.58;;;3.03;;
10945;SDS011;5525;42.648;23.368;2023-03-01T12:48:22;3.30;;;3.00;;
10945;SDS011;5525;42.648;23.368;2023-03-01T12:50:57;3.50;;;3.20;;
10945;SDS011;5525;42.648;23.368;2023-03-01T12:53:28;4.30;;;3.75;;
10945;SDS011;5525;42.648;23.368;2023-03-01T12:55:58;3.88;;;3.25;;
10945;SDS011;5525;42.648;23.368;2023-03-01T12:58:29;3.90;;;3.50;;
10945;SDS011;5525;42.648;23.368;2023-03-01T13:01:10;3.30;;;3.00;;
10945;SDS011;5525;42.648;23.368;2023-03-01T13:03:52;3.90;;;3.38;;
10945;SDS011;5525;42.648;23.368;2023-03-01T13:06:30;4.07;;;3.55;;
10945;SDS011;5525;42.648;23.368;2023-03-01T13:09:08;3.45;;;3.15;;
10945;SDS011;5525;42.648;23.368;2023-03-01T13:11:43;3.85;;;3.50;;
10945;SDS011;5525;42.648;23.368;2023-03-01T13:19:58;3.65;;;3.35;;
10945;SDS011;5525;42.648;23.368;2023-03-01T13:22:26;3.13;;;2.75;;
10945;SDS011;5525;42.648;23.368;2023-03-01T13:25:10;3.47;;;3.17;;
10945;SDS011;5525;42.648;23.368;2023-03-01T13:27:39;3.92;;;3.53;;
10945;SDS011;5525;42.648;23.368;2023-03-01T13:30:38;3.90;;;3.40;;
10945;SDS011;5525;42.648;23.368;2023-03-01T13:36:13;5.78;;;4.32;;
10945;SDS011;5525;42.648;23.368;2023-03-01T13:39:27;3.97;;;3.22;;
10945;SDS011;5525;42.648;23.368;2023-03-01T13:41:57;5.03;;;3.88;;
10945;SDS011;5525;42.648;23.368;2023-03-01T13:44:26;4.68;;;3.80;;
10945;SDS011;5525;42.648;23.368;2023-03-01T13:47:00;3.92;;;3.53;;
10945;SDS011;5525;42.648;23.368;2023-03-01T13:49:43;5.10;;;3.67;;
10945;SDS011;5525;42.648;23.368;2023-03-01T13:55:05;3.50;;;3.00;;
10945;SDS011;5525;42.648;23.368;2023-03-01T13:57:43;3.40;;;3.10;;
10945;SDS011;5525;42.648;23.368;2023-03-01T14:00:24;6.43;;;4.65;;
10945;SDS011;5525;42.648;23.368;2023-03-01T14:03:05;6.90;;;4.30;;
10945;SDS011;5525;42.648;23.368;2023-03-01T14:05:36;3.78;;;3.33;;
10945;SDS011;5525;42.648;23.368;2023-03-01T14:08:04;4.82;;;3.70;;
10945;SDS011;5525;42.648;23.368;2023-03-01T14:10:44;4.30;;;3.47;;
10945;SDS011;5525;42.648;23.368;2023-03-01T14:13:34;3.67;;;3.05;;
10945;SDS011;5525;42.648;23.368;2023-03-01T14:16:15;4.95;;;2.75;;
10945;SDS011;5525;42.648;23.368;2023-03-01T14:18:54;4.60;;;3.15;;
10945;SDS011;5525;42.648;23.368;2023-03-01T14:21:27;3.78;;;3.03;;
10945;SDS011;5525;42.648;23.368;2023-03-01T14:23:55;3.00;;;2.53;;
10945;SDS011;5525;42.648;23.368;2023-03-01T14:26:24;3.00;;;2.70;;
10945;SDS011;5525;42.648;23.368;2023-03-01T14:28:51;3.22;;;2.80;;
10945;SDS011;5525;42.648;23.368;2023-03-01T14:34:16;3.83;;;2.90;;
10945;SDS011;5525;42.648;23.368;2023-03-01T14:36:45;3.90;;;2.80;;
10945;SDS011;5525;42.648;23.368;2023-03-01T14:39:16;3.70;;;3.10;;
10945;SDS011;5525;42.648;23.368;2023-03-01T14:41:44;3.35;;;2.85;;
10945;SDS011;5525;42.648;23.368;2023-03-01T14:44:15;2.97;;;2.47;;
10945;SDS011;5525;42.648;23.368;2023-03-01T14:46:51;3.08;;;2.30;;
10945;SDS011;5525;42.648;23.368;2023-03-01T14:49:22;3.95;;;2.60;;
10945;SDS011;5525;42.648;23.368;2023-03-01T14:51:52;3.28;;;2.20;;
10945;SDS011;5525;42.648;23.368;2023-03-01T14:54:26;2.95;;;2.20;;
10945;SDS011;5525;42.648;23.368;2023-03-01T14:56:58;4.03;;;2.42;;
10945;SDS011;5525;42.648;23.368;2023-03-01T14:59:27;3.40;;;2.78;;
10945;SDS011;5525;42.648;23.368;2023-03-01T15:01:55;3.67;;;2.72;;
10945;SDS011;5525;42.648;23.368;2023-03-01T15:04:24;3.35;;;3.00;;
10945;SDS011;5525;42.648;23.368;2023-03-01T15:06:53;4.53;;;3.38;;
10945;SDS011;5525;42.648;23.368;2023-03-01T15:09:21;4.13;;;3.15;;
10945;SDS011;5525;42.648;23.368;2023-03-01T15:11:49;4.07;;;2.90;;
10945;SDS011;5525;42.648;23.368;2023-03-01T15:14:25;3.80;;;3.40;;
10945;SDS011;5525;42.648;23.368;2023-03-01T15:16:53;5.00;;;3.72;;
10945;SDS011;5525;42.648;23.368;2023-03-01T15:19:25;5.10;;;3.78;;
10945;SDS011;5525;42.648;23.368;2023-03-01T15:21:54;4.50;;;3.53;;
10945;SDS011;5525;42.648;23.368;2023-03-01T15:24:23;4.85;;;3.38;;
10945;SDS011;5525;42.648;23.368;2023-03-01T15:26:53;5.38;;;2.90;;
10945;SDS011;5525;42.648;23.368;2023-03-01T15:29:23;5.93;;;3.50;;